Time;durP1;ratioP1;P1;durP2;ratioP2;P2;SDS_P1;SDS_P2;PMS_P1;PMS_P2;Temp;Humidity;BMP_temperature;BMP_pressure;BME280_temperature;BME280_humidity;BME280_pressure;Samples;Min_cycle;Max_cycle;Signal;HPM_P1;HPM_P2
2023/03/26 05:42:40;;;;;;;38.07;5.80;;;9.20;99.90;;;;;;5000199;28;20500;-83
2023/03/26 05:45:11;;;;;;;22.83;4.00;;;9.10;99.90;;;;;;5002932;28;20474;-85
2023/03/26 05:47:59;;;;;;;16.43;4.43;;;8.90;1.00;;;;;;4998684;28;20525;-83
2023/03/26 05:50:43;;;;;;;19.00;6.60;;;8.70;1.00;;;;;;5001271;28;20430;-83
2023/03/26 05:53:17;;;;;;;17.70;4.38;;;8.60;1.00;;;;;;4996541;28;20636;-83
2023/03/26 05:55:59;;;;;;;36.27;7.70;;;8.60;1.00;;;;;;4997288;28;20217;-85
2023/03/26 05:58:43;;;;;;;15.73;6.53;;;8.60;1.00;;;;;;4994860;28;20489;-83
2023/03/26 06:01:53;;;;;;;;;;;;;;;;;;;;;
2023/03/26 06:04:14;;;;;;;13.20;4.60;;;8.60;1.00;;;;;;4983737;23;20742;-82
2023/03/26 06:06:50;;;;;;;23.67;4.95;;;8.60;1.00;;;;;;4976812;28;20431;-82
2023/03/26 06:09:31;;;;;;;24.75;5.43;;;8.70;1.00;;;;;;4992393;28;20187;-82
2023/03/26 06:15:20;;;;;;;12.23;4.37;;;8.70;1.00;;;;;;4968516;28;20447;-82
2023/03/26 06:18:23;;;;;;;16.55;5.05;;;8.70;1.00;;;;;;4962389;28;20439;-83
2023/03/26 06:21:43;;;;;;;24.13;4.65;;;8.80;1.00;;;;;;4968458;28;20210;-83
2023/03/26 06:27:15;;;;;;;11.47;4.43;;;8.80;1.00;;;;;;4985256;28;20354;-83
2023/03/26 06:33:10;;;;;;;14.10;4.43;;;8.80;1.00;;;;;;4973672;28;20482;-83
2023/03/26 06:35:46;;;;;;;13.70;4.50;;;8.90;1.00;;;;;;4967313;28;20439;-82
2023/03/26 06:38:41;;;;;;;;;;;;;;;;;;;;;
2023/03/26 06:41:13;;;;;;;25.83;5.10;;;8.90;1.00;;;;;;4969356;28;20507;-84
2023/03/26 06:44:08;;;;;;;;;;;;;;;;;;;;;
2023/03/26 06:46:43;;;;;;;13.30;4.30;;;8.90;1.00;;;;;;4965161;28;20519;-82
2023/03/26 06:49:18;;;;;;;17.40;5.65;;;8.90;1.00;;;;;;4970368;28;20529;-82
2023/03/26 06:52:20;;;;;;;18.33;5.53;;;8.90;1.00;;;;;;4981179;28;20222;-81
2023/03/26 06:55:05;;;;;;;16.03;6.20;;;8.90;1.00;;;;;;4968560;28;20478;-83
2023/03/26 06:57:50;;;;;;;;;;;;;;;;;;;;;
2023/03/26 07:00:36;;;;;;;17.90;5.93;;;8.80;1.00;;;;;;4972394;28;20507;-82
2023/03/26 07:03:20;;;;;;;23.63;5.60;;;8.80;1.00;;;;;;4966743;28;20467;-83
2023/03/26 07:05:47;;;;;;;16.43;6.27;;;8.80;1.00;;;;;;4973705;28;20480;-83
2023/03/26 07:08:41;;;;;;;12.17;5.10;;;8.90;1.00;;;;;;4970550;28;21261;-83
2023/03/26 07:11:25;;;;;;;15.50;5.82;;;8.90;1.00;;;;;;4966807;28;20444;-82
2023/03/26 07:14:11;;;;;;;25.30;5.80;;;8.90;1.00;;;;;;4978355;28;20220;-83
2023/03/26 07:16:58;;;;;;;19.93;6.00;;;8.80;1.00;;;;;;4970052;28;20215;-83
2023/03/26 07:19:44;;;;;;;26.15;5.55;;;8.90;1.00;;;;;;4978978;28;21029;-83
2023/03/26 07:22:20;;;;;;;26.80;6.70;;;8.90;1.00;;;;;;4975333;28;20212;-84
2023/03/26 07:25:03;;;;;;;18.47;7.00;;;8.80;1.00;;;;;;4978622;28;20439;-83
2023/03/26 07:27:55;;;;;;;19.33;6.77;;;8.80;1.00;;;;;;4971984;28;20452;-84
2023/03/26 07:31:22;;;;;;;35.73;8.67;;;8.90;1.00;;;;;;4983983;28;20448;-85
2023/03/26 07:34:32;;;;;;;28.03;7.43;;;8.80;1.00;;;;;;4980831;28;20472;-85
2023/03/26 07:37:21;;;;;;;15.00;6.20;;;8.90;1.00;;;;;;4985113;28;20439;-84
2023/03/26 07:40:02;;;;;;;25.45;7.35;;;8.80;1.00;;;;;;4985779;28;20222;-85
2023/03/26 07:42:46;;;;;;;20.43;6.73;;;8.80;1.00;;;;;;4981054;28;20259;-84
2023/03/26 07:45:43;;;;;;;16.58;6.32;;;8.80;1.00;;;;;;4975580;28;20501;-85
2023/03/26 07:48:17;;;;;;;23.50;6.60;;;8.90;1.00;;;;;;4976455;28;20200;-85
2023/03/26 07:50:54;;;;;;;19.00;6.47;;;8.90;1.00;;;;;;4982264;28;20444;-85
2023/03/26 07:53:41;;;;;;;24.40;6.90;;;9.00;1.00;;;;;;4979593;28;20460;-85
2023/03/26 07:56:14;;;;;;;31.77;6.83;;;9.00;1.00;;;;;;4982841;28;20442;-85
2023/03/26 07:58:48;;;;;;;25.47;7.73;;;9.00;1.00;;;;;;4977625;28;20503;-85
2023/03/26 08:01:23;;;;;;;17.63;7.33;;;8.90;1.00;;;;;;4982913;28;21020;-86
2023/03/26 08:04:11;;;;;;;22.73;7.20;;;9.00;1.00;;;;;;4974376;28;20563;-84
2023/03/26 08:06:38;;;;;;;24.60;8.17;;;9.00;1.00;;;;;;4978437;28;20436;-83
2023/03/26 08:09:15;;;;;;;25.30;7.27;;;8.90;1.00;;;;;;4977032;28;20470;-84
2023/03/26 08:11:56;;;;;;;33.05;9.27;;;8.90;1.00;;;;;;4993824;28;20468;-83
2023/03/26 08:14:56;;;;;;;22.83;8.57;;;8.90;1.00;;;;;;4969243;28;20184;-83
2023/03/26 08:17:53;;;;;;;41.00;8.30;;;8.90;1.00;;;;;;4982635;28;20432;-84
2023/03/26 08:21:05;;;;;;;35.17;9.80;;;8.90;1.00;;;;;;4984648;28;20184;-85
2023/03/26 08:23:37;;;;;;;25.40;9.80;;;8.90;1.00;;;;;;4980191;28;20475;-83
2023/03/26 08:26:16;;;;;;;25.77;9.93;;;8.90;1.00;;;;;;4967383;28;20448;-83
2023/03/26 08:29:08;;;;;;;30.95;11.35;;;8.90;1.00;;;;;;4975996;28;20188;-83
2023/03/26 08:31:40;;;;;;;28.80;9.53;;;8.80;1.00;;;;;;4966180;28;20205;-83
2023/03/26 08:34:09;;;;;;;28.13;10.70;;;8.80;1.00;;;;;;4982630;28;20523;-84
2023/03/26 08:36:37;;;;;;;22.37;9.87;;;8.80;1.00;;;;;;4982480;28;20443;-83
2023/03/26 08:39:04;;;;;;;28.90;9.88;;;8.80;1.00;;;;;;4975581;28;20873;-84
2023/03/26 08:41:43;;;;;;;19.97;6.70;;;8.80;1.00;;;;;;4971617;28;20177;-83
2023/03/26 08:44:30;;;;;;;28.00;10.07;;;8.70;1.00;;;;;;4974793;28;20885;-84
2023/03/26 08:47:20;;;;;;;25.42;7.25;;;8.70;1.00;;;;;;4980820;28;20495;-84
2023/03/26 08:50:16;;;;;;;22.15;6.25;;;8.70;1.00;;;;;;4981079;28;20180;-84
2023/03/26 08:53:04;;;;;;;14.35;5.05;;;8.70;1.00;;;;;;4974376;28;20212;-84
2023/03/26 08:55:41;;;;;;;10.90;4.85;;;8.70;1.00;;;;;;4982305;28;20184;-83
2023/03/26 08:58:38;;;;;;;10.33;6.00;;;8.70;1.00;;;;;;4980477;28;20180;-82
2023/03/26 09:01:10;;;;;;;13.03;6.67;;;8.60;1.00;;;;;;4981000;28;20476;-83
2023/03/26 09:03:50;;;;;;;17.47;7.03;;;8.60;1.00;;;;;;4980068;28;20475;-84
2023/03/26 09:06:41;;;;;;;13.70;6.30;;;8.60;1.00;;;;;;4978081;28;20451;-84
2023/03/26 09:09:45;;;;;;;12.65;4.60;;;8.60;1.00;;;;;;4976725;28;20424;-84
2023/03/26 09:12:46;;;;;;;10.18;4.35;;;8.50;1.00;;;;;;4973027;28;20242;-84
2023/03/26 09:15:46;;;;;;;13.07;4.45;;;8.50;1.00;;;;;;4978856;28;20265;-84
2023/03/26 09:18:33;;;;;;;15.60;5.30;;;8.40;1.00;;;;;;4979250;28;20263;-84
2023/03/26 09:21:10;;;;;;;21.90;7.85;;;8.50;1.00;;;;;;4974144;28;20452;-83
2023/03/26 09:24:07;;;;;;;18.85;7.63;;;8.50;1.00;;;;;;4969751;28;20299;-83
2023/03/26 09:27:01;;;;;;;11.93;6.47;;;8.50;1.00;;;;;;4964643;28;20199;-86
2023/03/26 09:29:56;;;;;;;16.87;6.10;;;8.60;1.00;;;;;;4968145;28;20187;-85
2023/03/26 09:32:46;;;;;;;22.17;5.90;;;8.70;1.00;;;;;;4973988;28;20478;-83
2023/03/26 09:35:13;;;;;;;11.50;4.60;;;8.70;1.00;;;;;;4971355;28;20431;-84
2023/03/26 09:38:01;;;;;;;12.80;4.40;;;8.70;1.00;;;;;;4976433;28;20432;-83
2023/03/26 09:40:57;;;;;;;7.80;3.53;;;8.80;1.00;;;;;;4968981;28;20431;-85
2023/03/26 09:43:36;;;;;;;12.23;4.60;;;8.80;1.00;;;;;;4962238;28;20510;-83
2023/03/26 09:46:21;;;;;;;6.10;2.87;;;8.80;1.00;;;;;;4965913;28;20442;-83
2023/03/26 09:49:02;;;;;;;9.13;3.17;;;8.90;1.00;;;;;;4970310;28;21018;-84
2023/03/26 09:52:02;;;;;;;13.03;4.30;;;8.90;1.00;;;;;;4964854;28;21159;-84
2023/03/26 09:55:08;;;;;;;;;;;;;;;;;;;;;
2023/03/26 09:57:56;;;;;;;15.90;5.57;;;8.80;1.00;;;;;;4968790;28;20937;-83
2023/03/26 10:00:45;;;;;;;14.47;5.87;;;8.90;1.00;;;;;;4971618;28;20454;-84
2023/03/26 10:03:42;;;;;;;21.33;7.10;;;9.10;1.00;;;;;;4971260;28;21261;-83
2023/03/26 10:06:20;;;;;;;14.57;4.17;;;9.30;1.00;;;;;;4974407;28;20454;-83
2023/03/26 10:09:00;;;;;;;17.87;4.90;;;9.50;1.00;;;;;;4971436;28;20456;-81
2023/03/26 10:12:19;;;;;;;12.63;4.23;;;9.60;1.00;;;;;;4977478;28;20494;-83
2023/03/26 10:15:31;;;;;;;9.10;3.80;;;9.80;1.00;;;;;;4954313;28;20432;-83
2023/03/26 10:18:14;;;;;;;8.57;3.47;;;10.00;1.00;;;;;;4976823;28;20497;-82
2023/03/26 10:20:54;;;;;;;15.33;4.77;;;10.10;1.00;;;;;;4970785;28;20427;-83
2023/03/26 10:23:38;;;;;;;9.40;3.53;;;10.20;1.00;;;;;;4974775;28;20486;-83
2023/03/26 10:26:35;;;;;;;7.80;3.87;;;10.40;1.00;;;;;;4972674;28;20546;-83
2023/03/26 10:29:17;;;;;;;11.47;4.53;;;10.50;1.00;;;;;;4975138;28;20458;-82
2023/03/26 10:32:04;;;;;;;14.43;5.80;;;10.60;1.00;;;;;;4970413;28;20475;-83
2023/03/26 10:35:13;;;;;;;12.03;5.70;;;10.60;99.90;;;;;;4976477;28;20440;-82
2023/03/26 10:37:57;;;;;;;14.93;5.73;;;10.50;99.90;;;;;;4971767;28;20494;-83
2023/03/26 10:40:31;;;;;;;10.63;4.80;;;10.50;99.90;;;;;;4962587;28;20449;-84
2023/03/26 10:43:19;;;;;;;13.23;5.57;;;10.40;99.90;;;;;;4969493;28;20470;-83
2023/03/26 10:46:04;;;;;;;11.20;5.13;;;10.30;99.90;;;;;;4974641;28;20458;-83
2023/03/26 10:48:40;;;;;;;10.63;5.00;;;10.30;99.90;;;;;;4967354;28;20443;-83
2023/03/26 10:51:28;;;;;;;15.13;3.97;;;10.20;99.90;;;;;;4963732;28;20444;-82
2023/03/26 10:54:16;;;;;;;8.77;4.90;;;10.20;1.00;;;;;;4962013;28;20889;-83
2023/03/26 10:56:48;;;;;;;11.10;5.33;;;10.30;1.00;;;;;;4960714;28;20856;-83
2023/03/26 10:59:26;;;;;;;;;;;;;;;;;;;;;
2023/03/26 11:02:27;;;;;;;15.27;6.10;;;10.40;1.00;;;;;;4960692;28;20504;-83
2023/03/26 11:04:58;;;;;;;17.47;6.87;;;10.50;1.00;;;;;;4972616;28;20494;-83
2023/03/26 11:07:35;;;;;;;9.90;5.07;;;10.60;99.90;;;;;;4977217;28;20567;-82
2023/03/26 11:10:06;;;;;;;11.73;5.33;;;10.70;99.90;;;;;;4976678;28;20808;-83
2023/03/26 11:12:48;;;;;;;13.47;5.10;;;10.80;99.90;;;;;;4979382;28;20467;-82
2023/03/26 11:15:42;;;;;;;8.93;4.10;;;10.80;99.90;;;;;;4977001;28;20955;-83
2023/03/26 11:18:35;;;;;;;14.23;5.70;;;10.80;99.90;;;;;;4984297;28;20841;-83
2023/03/26 11:21:20;;;;;;;10.63;5.27;;;10.90;99.90;;;;;;4971762;28;20447;-83
2023/03/26 11:23:53;;;;;;;9.23;4.70;;;10.90;99.90;;;;;;4978888;28;20462;-83
2023/03/26 11:26:42;;;;;;;13.23;5.10;;;10.80;99.90;;;;;;4981389;28;20431;-83
2023/03/26 11:29:28;;;;;;;10.90;5.20;;;10.80;99.90;;;;;;4962241;28;20475;-83
2023/03/26 11:32:09;;;;;;;16.20;7.90;;;10.70;99.90;;;;;;4977283;28;20480;-84
2023/03/26 11:34:57;;;;;;;9.13;4.87;;;10.70;99.90;;;;;;4982961;28;20584;-84
2023/03/26 11:37:37;;;;;;;10.33;5.00;;;11.00;99.90;;;;;;4974311;28;20442;-83
2023/03/26 11:40:20;;;;;;;13.87;5.30;;;11.20;99.90;;;;;;4981125;28;20450;-81
2023/03/26 11:43:01;;;;;;;;;;;;;;;;;;;;;
2023/03/26 11:45:39;;;;;;;13.17;5.37;;;11.70;99.90;;;;;;4969989;28;20503;-84
2023/03/26 11:48:16;;;;;;;8.73;4.53;;;11.80;99.90;;;;;;4971513;28;20422;-84
2023/03/26 11:50:46;;;;;;;10.17;5.83;;;11.90;99.90;;;;;;4981506;28;20800;-83
2023/03/26 11:53:32;;;;;;;8.03;4.93;;;11.90;1.00;;;;;;4972638;28;20603;-84
2023/03/26 11:56:03;;;;;;;18.80;6.00;;;11.80;1.00;;;;;;4975047;28;20444;-83
2023/03/26 11:59:26;;;;;;;21.10;6.63;;;11.90;1.00;;;;;;4974571;28;20833;-84
2023/03/26 12:02:24;;;;;;;16.50;9.00;;;11.90;1.00;;;;;;4970751;28;20440;-83
2023/03/26 12:05:11;;;;;;;17.70;8.77;;;11.80;55.40;;;;;;4989046;28;20779;-83
2023/03/26 12:07:45;;;;;;;17.57;8.40;;;12.00;99.90;;;;;;4987024;28;20463;-83
2023/03/26 12:10:37;;;;;;;16.47;8.50;;;12.20;1.00;;;;;;4974111;28;20443;-83
2023/03/26 12:13:25;;;;;;;13.63;7.60;;;12.40;1.00;;;;;;4970776;28;20480;-84
2023/03/26 12:16:23;;;;;;;13.70;7.43;;;12.30;1.00;;;;;;4983675;28;20447;-83
2023/03/26 12:19:21;;;;;;;12.93;6.10;;;12.10;99.90;;;;;;4985541;28;20447;-83
2023/03/26 12:21:54;;;;;;;9.37;6.33;;;11.90;1.00;;;;;;4979151;28;20455;-84
2023/03/26 12:24:48;;;;;;;;;;;;;;;;;;;;;
2023/03/26 12:27:54;;;;;;;19.37;9.33;;;11.70;99.90;;;;;;4978967;28;20467;-83
2023/03/26 12:30:35;;;;;;;;;;;;;;;;;;;;;
2023/03/26 12:33:15;;;;;;;12.27;8.17;;;11.40;1.00;;;;;;4983089;28;21013;-83
2023/03/26 12:35:50;;;;;;;14.20;8.00;;;11.30;99.90;;;;;;4977029;28;20455;-83
2023/03/26 12:38:44;;;;;;;13.77;9.33;;;11.20;99.90;;;;;;4990611;28;20439;-83
2023/03/26 12:41:17;;;;;;;10.93;7.60;;;11.10;99.90;;;;;;4987323;28;20448;-83
2023/03/26 12:44:22;;;;;;;;;;;;;;;;;;;;;
2023/03/26 12:47:11;;;;;;;15.03;8.03;;;11.20;99.90;;;;;;4982619;28;20541;-83
2023/03/26 12:50:04;;;;;;;7.10;6.07;;;11.30;99.90;;;;;;4980664;28;20891;-83
2023/03/26 12:55:49;;;;;;;9.77;6.63;;;11.20;99.90;;;;;;4974517;28;20859;-83
2023/03/26 12:58:49;;;;;;;7.07;5.60;;;11.20;99.90;;;;;;4980270;28;20519;-84
2023/03/26 13:01:32;;;;;;;9.27;5.80;;;11.20;99.90;;;;;;4979527;28;20990;-83
2023/03/26 13:04:09;;;;;;;9.47;6.40;;;11.20;99.90;;;;;;4981769;28;20645;-83
2023/03/26 13:10:06;;;;;;;;;;;;;;;;;;;;;
2023/03/26 13:12:39;;;;;;;5.83;4.97;;;11.20;99.90;;;;;;4968616;28;20551;-83
2023/03/26 13:19:00;;;;;;;8.60;5.17;;;11.30;99.90;;;;;;4975832;28;20435;-83
2023/03/26 13:22:01;;;;;;;6.27;3.50;;;11.20;99.90;;;;;;4977569;28;20455;-82
2023/03/26 13:31:44;;;;;;;4.40;2.80;;;11.20;99.90;;;;;;4897565;28;20854;-82
2023/03/26 13:37:31;;;;;;;;;;;;;;;;;;;;;
2023/03/26 13:40:24;;;;;;;;;;;;;;;;;;;;;
2023/03/26 13:43:03;;;;;;;4.17;2.23;;;11.20;99.90;;;;;;4975216;28;20531;-83
2023/03/26 13:45:55;;;;;;;6.47;3.00;;;11.30;99.90;;;;;;4974817;28;20990;-83
2023/03/26 13:48:45;;;;;;;;;;;;;;;;;;;;;
2023/03/26 13:51:16;;;;;;;2.83;1.70;;;11.30;99.90;;;;;;4978059;28;20587;-84
2023/03/26 13:54:24;;;;;;;;;;;;;;;;;;;;;
2023/03/26 13:57:32;;;;;;;3.20;1.93;;;11.40;99.90;;;;;;4975493;28;20503;-84
2023/03/26 14:00:18;;;;;;;;;;;;;;;;;;;;;
2023/03/26 14:03:23;;;;;;;5.93;1.40;;;11.70;1.00;;;;;;4971936;28;20546;-83
2023/03/26 14:05:59;;;;;;;5.20;1.50;;;11.70;1.00;;;;;;4975346;28;20478;-84
2023/03/26 14:08:47;;;;;;;3.00;2.60;;;11.70;1.00;;;;;;4976725;28;20438;-83
2023/03/26 14:11:49;;;;;;;;;;;;;;;;;;;;;
2023/03/26 14:14:57;;;;;;;1.97;1.30;;;11.90;99.90;;;;;;4970647;28;20585;-83
2023/03/26 14:18:05;;;;;;;2.07;1.10;;;12.10;99.90;;;;;;4974185;28;20435;-83
2023/03/26 14:21:05;;;;;;;1.90;1.20;;;12.20;99.90;;;;;;4975766;28;20459;-83
2023/03/26 14:23:38;;;;;;;2.67;1.63;;;12.40;1.00;;;;;;4979462;28;20527;-83
2023/03/26 14:26:23;;;;;;;2.60;1.50;;;12.60;1.00;;;;;;4975678;28;20703;-83
2023/03/26 14:28:55;;;;;;;3.37;2.17;;;12.80;99.90;;;;;;4972420;28;20498;-83
2023/03/26 14:31:41;;;;;;;3.93;2.50;;;12.90;1.00;;;;;;4975212;28;20443;-83
2023/03/26 14:34:21;;;;;;;6.43;4.13;;;13.00;1.00;;;;;;4987111;28;20465;-83
2023/03/26 14:37:23;;;;;;;4.47;3.60;;;13.10;1.00;;;;;;4978501;28;20437;-83
2023/03/26 14:40:06;;;;;;;4.13;3.73;;;13.10;1.00;;;;;;4977249;28;20436;-83
2023/03/26 14:42:52;;;;;;;6.97;3.07;;;13.20;99.90;;;;;;4977020;28;20471;-83
2023/03/26 14:45:53;;;;;;;4.23;3.17;;;13.20;1.00;;;;;;4971254;28;20438;-84
2023/03/26 14:48:54;;;;;;;3.43;2.60;;;13.20;1.00;;;;;;4975967;28;20453;-84
2023/03/26 14:51:29;;;;;;;3.43;2.33;;;13.10;1.00;;;;;;4984777;28;20447;-82
2023/03/26 14:54:04;;;;;;;2.90;2.13;;;13.00;1.00;;;;;;4986663;28;20498;-83
2023/03/26 14:56:45;;;;;;;3.60;2.13;;;12.80;1.00;;;;;;4984630;28;20439;-83
2023/03/26 15:06:51;;;;;;;3.10;2.37;;;12.60;1.00;;;;;;4942617;28;20453;-83
2023/03/26 15:13:39;;;;;;;2.50;1.83;;;12.30;99.90;;;;;;4973358;28;20478;-82
2023/03/26 15:34:07;;;;;;;5.10;3.60;;;11.90;1.00;;;;;;4917457;28;20496;-84
2023/03/26 15:40:46;;;;;;;;;;;;;;;;;;;;;
2023/03/26 15:47:40;;;;;;;4.60;3.70;;;11.90;1.00;;;;;;4929518;29;20476;-85
2023/03/26 15:51:05;;;;;;;;;;;;;;;;;;;;;
2023/03/26 15:54:19;;;;;;;;;;;;;;;;;;;;;
2023/03/26 16:04:43;;;;;;;;;;;;;;;;;;;;;
2023/03/26 16:07:19;;;;;;;4.30;3.20;;;11.70;1.00;;;;;;4976770;28;20515;-85
2023/03/26 16:17:33;;;;;;;4.87;3.97;;;11.70;1.00;;;;;;4985794;28;20451;-84
2023/03/26 16:20:33;;;;;;;8.20;4.70;;;11.70;99.90;;;;;;4975341;28;20599;-84
2023/03/26 17:07:17;;;;;;;;;;;;;;;;;;;;;
2023/03/26 17:10:10;;;;;;;18.57;6.87;;;10.80;1.00;;;;;;4979875;28;20471;-84
2023/03/26 17:57:15;;;;;;;16.50;5.13;;;10.00;1.00;;;;;;2712423;23;20510;-84
2023/03/26 18:10:37;;;;;;;;;;;;;;;;;;;;;
2023/03/26 18:13:54;;;;;;;;;;;;;;;;;;;;;
2023/03/26 18:17:32;;;;;;;;;;;;;;;;;;;;;
2023/03/26 18:20:51;;;;;;;;;;;;;;;;;;;;;
